sensor_id;sensor_type;location;lat;lon;timestamp;P1;durP1;ratioP1;P2;durP2;ratioP2
62610;SDS011;48683;48.084;17.272;2022-09-13T00:00:39;5.78;;;4.15;;
62610;SDS011;48683;48.084;17.272;2022-09-13T00:03:06;3.40;;;3.08;;
62610;SDS011;48683;48.084;17.272;2022-09-13T00:05:32;4.50;;;3.90;;
62610;SDS011;48683;48.084;17.272;2022-09-13T00:07:58;5.97;;;3.85;;
62610;SDS011;48683;48.084;17.272;2022-09-13T00:10:24;4.53;;;3.65;;
62610;SDS011;48683;48.084;17.272;2022-09-13T00:12:50;6.50;;;3.80;;
62610;SDS011;48683;48.084;17.272;2022-09-13T00:15:16;6.47;;;4.22;;
62610;SDS011;48683;48.084;17.272;2022-09-13T00:17:42;4.90;;;3.20;;
62610;SDS011;48683;48.084;17.272;2022-09-13T00:20:08;4.05;;;3.45;;
62610;SDS011;48683;48.084;17.272;2022-09-13T00:22:34;5.35;;;3.75;;
62610;SDS011;48683;48.084;17.272;2022-09-13T00:25:00;3.75;;;3.45;;
62610;SDS011;48683;48.084;17.272;2022-09-13T00:27:26;4.75;;;3.20;;
62610;SDS011;48683;48.084;17.272;2022-09-13T00:29:51;5.28;;;4.10;;
62610;SDS011;48683;48.084;17.272;2022-09-13T00:32:17;3.95;;;3.53;;
62610;SDS011;48683;48.084;17.272;2022-09-13T00:34:42;5.82;;;3.92;;
62610;SDS011;48683;48.084;17.272;2022-09-13T00:37:08;7.63;;;4.05;;
62610;SDS011;48683;48.084;17.272;2022-09-13T00:39:34;5.70;;;4.00;;
62610;SDS011;48683;48.084;17.272;2022-09-13T00:42:00;5.15;;;4.38;;
62610;SDS011;48683;48.084;17.272;2022-09-13T00:47:32;7.90;;;4.43;;
62610;SDS011;48683;48.084;17.272;2022-09-13T00:53:02;5.75;;;3.95;;
62610;SDS011;48683;48.084;17.272;2022-09-13T00:55:30;5.43;;;4.57;;
62610;SDS011;48683;48.084;17.272;2022-09-13T00:58:01;7.45;;;4.93;;
62610;SDS011;48683;48.084;17.272;2022-09-13T01:00:31;9.65;;;5.40;;
62610;SDS011;48683;48.084;17.272;2022-09-13T01:02:57;6.35;;;4.68;;
62610;SDS011;48683;48.084;17.272;2022-09-13T01:05:27;6.05;;;4.55;;
62610;SDS011;48683;48.084;17.272;2022-09-13T01:07:56;8.82;;;4.95;;
62610;SDS011;48683;48.084;17.272;2022-09-13T01:10:24;5.80;;;4.63;;
62610;SDS011;48683;48.084;17.272;2022-09-13T01:12:59;6.00;;;4.28;;
62610;SDS011;48683;48.084;17.272;2022-09-13T01:15:29;5.45;;;4.38;;
62610;SDS011;48683;48.084;17.272;2022-09-13T01:17:54;4.65;;;4.13;;
62610;SDS011;48683;48.084;17.272;2022-09-13T01:20:21;5.60;;;4.38;;
62610;SDS011;48683;48.084;17.272;2022-09-13T01:31:19;5.25;;;3.67;;
62610;SDS011;48683;48.084;17.272;2022-09-13T01:47:18;6.28;;;4.60;;
62610;SDS011;48683;48.084;17.272;2022-09-13T01:50:16;8.48;;;5.57;;
62610;SDS011;48683;48.084;17.272;2022-09-13T01:53:06;8.52;;;5.43;;
62610;SDS011;48683;48.084;17.272;2022-09-13T01:55:42;8.15;;;6.03;;
62610;SDS011;48683;48.084;17.272;2022-09-13T02:00:46;8.43;;;6.72;;
62610;SDS011;48683;48.084;17.272;2022-09-13T02:03:18;8.48;;;6.13;;
62610;SDS011;48683;48.084;17.272;2022-09-13T02:05:51;9.07;;;6.50;;
62610;SDS011;48683;48.084;17.272;2022-09-13T02:08:42;7.10;;;5.70;;
62610;SDS011;48683;48.084;17.272;2022-09-13T02:11:11;7.00;;;5.65;;
62610;SDS011;48683;48.084;17.272;2022-09-13T02:13:40;7.50;;;5.78;;
62610;SDS011;48683;48.084;17.272;2022-09-13T02:16:12;7.35;;;6.13;;
62610;SDS011;48683;48.084;17.272;2022-09-13T02:18:45;7.65;;;6.13;;
62610;SDS011;48683;48.084;17.272;2022-09-13T02:21:20;4.88;;;4.10;;
62610;SDS011;48683;48.084;17.272;2022-09-13T02:23:52;7.13;;;4.10;;
62610;SDS011;48683;48.084;17.272;2022-09-13T02:26:22;4.43;;;4.03;;
62610;SDS011;48683;48.084;17.272;2022-09-13T02:28:50;6.35;;;4.07;;
62610;SDS011;48683;48.084;17.272;2022-09-13T02:31:23;5.65;;;3.83;;
62610;SDS011;48683;48.084;17.272;2022-09-13T02:33:55;6.07;;;4.22;;
62610;SDS011;48683;48.084;17.272;2022-09-13T02:36:25;6.60;;;4.03;;
62610;SDS011;48683;48.084;17.272;2022-09-13T02:58:12;8.13;;;4.25;;
62610;SDS011;48683;48.084;17.272;2022-09-13T03:00:43;4.40;;;3.72;;
62610;SDS011;48683;48.084;17.272;2022-09-13T03:03:11;5.75;;;4.00;;
62610;SDS011;48683;48.084;17.272;2022-09-13T03:05:38;4.47;;;3.53;;
62610;SDS011;48683;48.084;17.272;2022-09-13T03:08:04;7.53;;;3.95;;
62610;SDS011;48683;48.084;17.272;2022-09-13T03:29:39;7.63;;;4.60;;
62610;SDS011;48683;48.084;17.272;2022-09-13T03:31:50;4.80;;;4.40;;
62610;SDS011;48683;48.084;17.272;2022-09-13T03:37:43;5.03;;;4.40;;
62610;SDS011;48683;48.084;17.272;2022-09-13T03:40:20;7.20;;;4.60;;
62610;SDS011;48683;48.084;17.272;2022-09-13T03:43:07;7.38;;;5.32;;
62610;SDS011;48683;48.084;17.272;2022-09-13T03:45:38;6.93;;;4.70;;
62610;SDS011;48683;48.084;17.272;2022-09-13T03:48:07;8.63;;;5.45;;
62610;SDS011;48683;48.084;17.272;2022-09-13T03:50:35;6.55;;;5.00;;
62610;SDS011;48683;48.084;17.272;2022-09-13T03:53:10;6.53;;;5.20;;
62610;SDS011;48683;48.084;17.272;2022-09-13T03:55:38;6.70;;;5.13;;
62610;SDS011;48683;48.084;17.272;2022-09-13T03:58:07;7.20;;;4.20;;
62610;SDS011;48683;48.084;17.272;2022-09-13T04:00:35;8.25;;;5.05;;
62610;SDS011;48683;48.084;17.272;2022-09-13T04:03:01;5.55;;;4.45;;
62610;SDS011;48683;48.084;17.272;2022-09-13T04:05:26;6.07;;;4.40;;
62610;SDS011;48683;48.084;17.272;2022-09-13T04:07:52;5.50;;;4.13;;
62610;SDS011;48683;48.084;17.272;2022-09-13T04:10:17;7.65;;;5.13;;
62610;SDS011;48683;48.084;17.272;2022-09-13T04:12:43;8.15;;;5.95;;
62610;SDS011;48683;48.084;17.272;2022-09-13T04:15:08;9.02;;;5.57;;
62610;SDS011;48683;48.084;17.272;2022-09-13T04:17:34;8.48;;;6.13;;
62610;SDS011;48683;48.084;17.272;2022-09-13T04:20:00;6.73;;;5.40;;
62610;SDS011;48683;48.084;17.272;2022-09-13T04:22:25;5.88;;;5.10;;
62610;SDS011;48683;48.084;17.272;2022-09-13T04:24:51;8.30;;;5.22;;
62610;SDS011;48683;48.084;17.272;2022-09-13T04:27:16;6.88;;;5.30;;
62610;SDS011;48683;48.084;17.272;2022-09-13T04:29:42;7.07;;;5.10;;
62610;SDS011;48683;48.084;17.272;2022-09-13T04:32:07;6.30;;;5.45;;
62610;SDS011;48683;48.084;17.272;2022-09-13T04:34:34;11.88;;;5.15;;
62610;SDS011;48683;48.084;17.272;2022-09-13T04:36:59;6.60;;;4.25;;
62610;SDS011;48683;48.084;17.272;2022-09-13T04:39:25;8.02;;;4.60;;
62610;SDS011;48683;48.084;17.272;2022-09-13T04:41:50;6.82;;;4.65;;
62610;SDS011;48683;48.084;17.272;2022-09-13T04:44:18;10.75;;;5.63;;
62610;SDS011;48683;48.084;17.272;2022-09-13T04:46:47;5.50;;;4.30;;
62610;SDS011;48683;48.084;17.272;2022-09-13T04:49:14;10.85;;;5.88;;
62610;SDS011;48683;48.084;17.272;2022-09-13T04:54:05;7.83;;;5.30;;
62610;SDS011;48683;48.084;17.272;2022-09-13T04:56:32;11.00;;;5.22;;
62610;SDS011;48683;48.084;17.272;2022-09-13T04:58:58;11.80;;;6.22;;
62610;SDS011;48683;48.084;17.272;2022-09-13T05:01:23;7.15;;;4.88;;
62610;SDS011;48683;48.084;17.272;2022-09-13T05:03:49;13.00;;;5.15;;
62610;SDS011;48683;48.084;17.272;2022-09-13T05:06:16;7.65;;;5.07;;
62610;SDS011;48683;48.084;17.272;2022-09-13T05:08:42;9.20;;;5.50;;
62610;SDS011;48683;48.084;17.272;2022-09-13T05:11:08;6.38;;;5.15;;
62610;SDS011;48683;48.084;17.272;2022-09-13T05:13:35;10.07;;;6.00;;
62610;SDS011;48683;48.084;17.272;2022-09-13T05:16:02;9.82;;;5.97;;
62610;SDS011;48683;48.084;17.272;2022-09-13T05:18:29;7.80;;;6.10;;
62610;SDS011;48683;48.084;17.272;2022-09-13T05:20:57;8.00;;;6.00;;
62610;SDS011;48683;48.084;17.272;2022-09-13T05:23:24;11.32;;;5.30;;
62610;SDS011;48683;48.084;17.272;2022-09-13T05:28:19;6.80;;;5.50;;
62610;SDS011;48683;48.084;17.272;2022-09-13T05:30:53;8.60;;;6.50;;
62610;SDS011;48683;48.084;17.272;2022-09-13T05:33:25;10.48;;;5.93;;
62610;SDS011;48683;48.084;17.272;2022-09-13T05:38:17;10.27;;;6.27;;
62610;SDS011;48683;48.084;17.272;2022-09-13T05:40:43;8.35;;;5.82;;
62610;SDS011;48683;48.084;17.272;2022-09-13T05:43:09;7.88;;;5.43;;
62610;SDS011;48683;48.084;17.272;2022-09-13T05:45:34;7.93;;;5.57;;
62610;SDS011;48683;48.084;17.272;2022-09-13T05:48:00;7.80;;;5.85;;
62610;SDS011;48683;48.084;17.272;2022-09-13T05:50:26;7.93;;;6.25;;
62610;SDS011;48683;48.084;17.272;2022-09-13T05:52:51;7.95;;;5.57;;
62610;SDS011;48683;48.084;17.272;2022-09-13T05:55:17;8.85;;;6.38;;
62610;SDS011;48683;48.084;17.272;2022-09-13T05:57:43;9.77;;;5.38;;
62610;SDS011;48683;48.084;17.272;2022-09-13T06:00:08;9.25;;;6.70;;
62610;SDS011;48683;48.084;17.272;2022-09-13T06:02:34;7.00;;;5.40;;
62610;SDS011;48683;48.084;17.272;2022-09-13T06:05:00;6.47;;;5.53;;
62610;SDS011;48683;48.084;17.272;2022-09-13T06:07:25;9.52;;;6.80;;
62610;SDS011;48683;48.084;17.272;2022-09-13T06:09:52;9.35;;;5.60;;
62610;SDS011;48683;48.084;17.272;2022-09-13T06:12:18;7.90;;;5.60;;
62610;SDS011;48683;48.084;17.272;2022-09-13T06:14:43;6.57;;;5.93;;
62610;SDS011;48683;48.084;17.272;2022-09-13T06:17:08;7.00;;;5.40;;
62610;SDS011;48683;48.084;17.272;2022-09-13T06:19:34;7.72;;;5.60;;
62610;SDS011;48683;48.084;17.272;2022-09-13T06:21:59;7.75;;;5.75;;
62610;SDS011;48683;48.084;17.272;2022-09-13T06:24:24;9.25;;;5.88;;
62610;SDS011;48683;48.084;17.272;2022-09-13T06:26:50;9.60;;;5.28;;
62610;SDS011;48683;48.084;17.272;2022-09-13T06:29:15;9.73;;;5.30;;
62610;SDS011;48683;48.084;17.272;2022-09-13T06:31:41;9.10;;;5.70;;
62610;SDS011;48683;48.084;17.272;2022-09-13T06:34:09;7.72;;;5.15;;
62610;SDS011;48683;48.084;17.272;2022-09-13T06:36:40;6.88;;;5.45;;
62610;SDS011;48683;48.084;17.272;2022-09-13T06:39:05;7.28;;;5.47;;
62610;SDS011;48683;48.084;17.272;2022-09-13T06:41:31;9.98;;;5.90;;
62610;SDS011;48683;48.084;17.272;2022-09-13T06:43:57;8.75;;;5.90;;
62610;SDS011;48683;48.084;17.272;2022-09-13T06:46:24;9.05;;;5.78;;
62610;SDS011;48683;48.084;17.272;2022-09-13T06:48:54;8.07;;;5.28;;
62610;SDS011;48683;48.084;17.272;2022-09-13T06:51:21;6.57;;;4.90;;
62610;SDS011;48683;48.084;17.272;2022-09-13T06:53:48;7.47;;;5.05;;
62610;SDS011;48683;48.084;17.272;2022-09-13T06:58:41;6.07;;;5.53;;
62610;SDS011;48683;48.084;17.272;2022-09-13T07:01:18;7.90;;;5.57;;
62610;SDS011;48683;48.084;17.272;2022-09-13T07:03:48;7.30;;;5.50;;
62610;SDS011;48683;48.084;17.272;2022-09-13T07:06:16;7.13;;;5.40;;
62610;SDS011;48683;48.084;17.272;2022-09-13T07:08:43;5.82;;;5.22;;
62610;SDS011;48683;48.084;17.272;2022-09-13T07:11:10;6.28;;;5.45;;
62610;SDS011;48683;48.084;17.272;2022-09-13T07:13:37;7.13;;;5.03;;
62610;SDS011;48683;48.084;17.272;2022-09-13T07:16:04;7.03;;;5.47;;
62610;SDS011;48683;48.084;17.272;2022-09-13T07:18:30;7.28;;;5.43;;
62610;SDS011;48683;48.084;17.272;2022-09-13T07:20:59;8.27;;;5.30;;
62610;SDS011;48683;48.084;17.272;2022-09-13T07:23:30;7.45;;;4.70;;
62610;SDS011;48683;48.084;17.272;2022-09-13T07:25:56;6.32;;;4.95;;
62610;SDS011;48683;48.084;17.272;2022-09-13T07:28:26;7.70;;;5.00;;
62610;SDS011;48683;48.084;17.272;2022-09-13T07:30:53;8.00;;;5.00;;
62610;SDS011;48683;48.084;17.272;2022-09-13T07:33:19;7.95;;;5.05;;
62610;SDS011;48683;48.084;17.272;2022-09-13T07:35:45;5.53;;;4.95;;
62610;SDS011;48683;48.084;17.272;2022-09-13T07:38:10;9.77;;;5.00;;
62610;SDS011;48683;48.084;17.272;2022-09-13T07:40:35;4.63;;;3.97;;
62610;SDS011;48683;48.084;17.272;2022-09-13T07:43:01;7.50;;;5.30;;
62610;SDS011;48683;48.084;17.272;2022-09-13T07:45:26;7.07;;;4.75;;
62610;SDS011;48683;48.084;17.272;2022-09-13T07:47:52;10.90;;;5.30;;
62610;SDS011;48683;48.084;17.272;2022-09-13T07:50:18;7.65;;;4.40;;
62610;SDS011;48683;48.084;17.272;2022-09-13T07:52:43;8.10;;;4.53;;
62610;SDS011;48683;48.084;17.272;2022-09-13T07:55:09;6.50;;;4.73;;
62610;SDS011;48683;48.084;17.272;2022-09-13T07:57:34;7.85;;;4.35;;
62610;SDS011;48683;48.084;17.272;2022-09-13T07:59:59;7.03;;;4.78;;
62610;SDS011;48683;48.084;17.272;2022-09-13T08:02:25;7.70;;;4.82;;
62610;SDS011;48683;48.084;17.272;2022-09-13T08:04:51;10.17;;;5.40;;
62610;SDS011;48683;48.084;17.272;2022-09-13T08:07:16;5.20;;;4.20;;
62610;SDS011;48683;48.084;17.272;2022-09-13T08:09:41;9.85;;;4.40;;
62610;SDS011;48683;48.084;17.272;2022-09-13T08:12:07;6.18;;;3.83;;
62610;SDS011;48683;48.084;17.272;2022-09-13T08:14:32;5.77;;;4.60;;
62610;SDS011;48683;48.084;17.272;2022-09-13T08:16:57;6.80;;;4.23;;
62610;SDS011;48683;48.084;17.272;2022-09-13T08:19:23;6.13;;;3.93;;
62610;SDS011;48683;48.084;17.272;2022-09-13T08:21:48;3.63;;;3.20;;
62610;SDS011;48683;48.084;17.272;2022-09-13T08:24:15;5.85;;;4.20;;
62610;SDS011;48683;48.084;17.272;2022-09-13T08:26:45;4.38;;;3.63;;
62610;SDS011;48683;48.084;17.272;2022-09-13T08:29:11;4.03;;;3.35;;
62610;SDS011;48683;48.084;17.272;2022-09-13T08:31:37;5.50;;;3.92;;
62610;SDS011;48683;48.084;17.272;2022-09-13T08:34:03;5.27;;;3.80;;
62610;SDS011;48683;48.084;17.272;2022-09-13T08:36:28;5.27;;;3.33;;
62610;SDS011;48683;48.084;17.272;2022-09-13T08:38:55;5.67;;;3.17;;
62610;SDS011;48683;48.084;17.272;2022-09-13T08:44:21;3.95;;;3.03;;
62610;SDS011;48683;48.084;17.272;2022-09-13T08:49:44;4.10;;;3.15;;
62610;SDS011;48683;48.084;17.272;2022-09-13T08:55:05;6.30;;;3.55;;
62610;SDS011;48683;48.084;17.272;2022-09-13T08:57:46;3.97;;;3.17;;
62610;SDS011;48683;48.084;17.272;2022-09-13T09:02:56;3.63;;;3.10;;
62610;SDS011;48683;48.084;17.272;2022-09-13T09:05:28;5.45;;;2.92;;
62610;SDS011;48683;48.084;17.272;2022-09-13T09:07:58;4.53;;;3.38;;
62610;SDS011;48683;48.084;17.272;2022-09-13T09:10:32;3.30;;;2.70;;
62610;SDS011;48683;48.084;17.272;2022-09-13T09:13:03;3.47;;;2.78;;
62610;SDS011;48683;48.084;17.272;2022-09-13T09:15:54;4.20;;;2.65;;
62610;SDS011;48683;48.084;17.272;2022-09-13T09:18:21;3.58;;;3.00;;
62610;SDS011;48683;48.084;17.272;2022-09-13T09:20:59;2.80;;;2.60;;
62610;SDS011;48683;48.084;17.272;2022-09-13T09:23:30;3.95;;;2.20;;
62610;SDS011;48683;48.084;17.272;2022-09-13T09:26:20;2.90;;;2.17;;
62610;SDS011;48683;48.084;17.272;2022-09-13T09:29:00;5.07;;;3.03;;
62610;SDS011;48683;48.084;17.272;2022-09-13T09:34:55;7.10;;;2.53;;
62610;SDS011;48683;48.084;17.272;2022-09-13T09:37:45;5.45;;;2.83;;
62610;SDS011;48683;48.084;17.272;2022-09-13T09:40:19;4.95;;;2.60;;
62610;SDS011;48683;48.084;17.272;2022-09-13T09:42:46;2.23;;;2.03;;
62610;SDS011;48683;48.084;17.272;2022-09-13T09:47:45;2.95;;;2.45;;
62610;SDS011;48683;48.084;17.272;2022-09-13T09:50:17;3.65;;;2.40;;
62610;SDS011;48683;48.084;17.272;2022-09-13T09:52:51;3.85;;;2.45;;
62610;SDS011;48683;48.084;17.272;2022-09-13T09:55:27;2.88;;;2.30;;
62610;SDS011;48683;48.084;17.272;2022-09-13T09:57:58;4.32;;;2.33;;
62610;SDS011;48683;48.084;17.272;2022-09-13T10:00:25;5.15;;;2.40;;
62610;SDS011;48683;48.084;17.272;2022-09-13T10:02:55;3.15;;;2.05;;
62610;SDS011;48683;48.084;17.272;2022-09-13T10:05:23;7.07;;;2.42;;
62610;SDS011;48683;48.084;17.272;2022-09-13T10:10:25;5.03;;;2.60;;
62610;SDS011;48683;48.084;17.272;2022-09-13T10:12:59;3.83;;;2.85;;
62610;SDS011;48683;48.084;17.272;2022-09-13T10:15:27;4.70;;;2.50;;
62610;SDS011;48683;48.084;17.272;2022-09-13T10:20:40;3.65;;;2.20;;
62610;SDS011;48683;48.084;17.272;2022-09-13T10:25:38;2.55;;;1.80;;
62610;SDS011;48683;48.084;17.272;2022-09-13T10:28:06;4.45;;;2.05;;
62610;SDS011;48683;48.084;17.272;2022-09-13T10:30:57;2.97;;;1.98;;
62610;SDS011;48683;48.084;17.272;2022-09-13T10:33:37;3.50;;;1.90;;
62610;SDS011;48683;48.084;17.272;2022-09-13T10:36:06;4.10;;;1.80;;
62610;SDS011;48683;48.084;17.272;2022-09-13T10:38:39;2.72;;;1.80;;
62610;SDS011;48683;48.084;17.272;2022-09-13T10:41:10;3.67;;;2.13;;
62610;SDS011;48683;48.084;17.272;2022-09-13T10:43:46;3.03;;;2.33;;
62610;SDS011;48683;48.084;17.272;2022-09-13T10:46:21;3.88;;;2.08;;
62610;SDS011;48683;48.084;17.272;2022-09-13T10:48:47;2.53;;;1.88;;
62610;SDS011;48683;48.084;17.272;2022-09-13T10:53:51;3.15;;;1.92;;
62610;SDS011;48683;48.084;17.272;2022-09-13T10:56:41;3.10;;;2.17;;
62610;SDS011;48683;48.084;17.272;2022-09-13T10:59:15;4.90;;;2.25;;
62610;SDS011;48683;48.084;17.272;2022-09-13T11:05:23;3.00;;;2.15;;
62610;SDS011;48683;48.084;17.272;2022-09-13T11:07:46;3.33;;;2.03;;
62610;SDS011;48683;48.084;17.272;2022-09-13T11:10:28;7.28;;;2.40;;
62610;SDS011;48683;48.084;17.272;2022-09-13T11:26:35;3.53;;;2.58;;
62610;SDS011;48683;48.084;17.272;2022-09-13T11:32:17;5.88;;;2.45;;
62610;SDS011;48683;48.084;17.272;2022-09-13T11:45:25;7.82;;;2.15;;
62610;SDS011;48683;48.084;17.272;2022-09-13T11:56:07;2.55;;;2.28;;
62610;SDS011;48683;48.084;17.272;2022-09-13T12:01:04;5.17;;;2.17;;
62610;SDS011;48683;48.084;17.272;2022-09-13T12:06:02;3.17;;;2.40;;
62610;SDS011;48683;48.084;17.272;2022-09-13T12:08:34;2.40;;;2.20;;
62610;SDS011;48683;48.084;17.272;2022-09-13T12:11:02;2.58;;;2.20;;
62610;SDS011;48683;48.084;17.272;2022-09-13T12:14:17;2.03;;;1.83;;
62610;SDS011;48683;48.084;17.272;2022-09-13T12:16:28;2.33;;;2.13;;
62610;SDS011;48683;48.084;17.272;2022-09-13T12:19:26;2.58;;;2.30;;
62610;SDS011;48683;48.084;17.272;2022-09-13T12:21:55;3.17;;;2.22;;
62610;SDS011;48683;48.084;17.272;2022-09-13T12:24:31;3.85;;;2.15;;
62610;SDS011;48683;48.084;17.272;2022-09-13T12:27:03;2.60;;;2.40;;
62610;SDS011;48683;48.084;17.272;2022-09-13T12:32:43;4.38;;;2.05;;
62610;SDS011;48683;48.084;17.272;2022-09-13T12:59:50;3.03;;;2.15;;
62610;SDS011;48683;48.084;17.272;2022-09-13T13:02:44;3.47;;;2.35;;
62610;SDS011;48683;48.084;17.272;2022-09-13T13:05:25;7.70;;;2.33;;
62610;SDS011;48683;48.084;17.272;2022-09-13T13:07:58;10.40;;;2.25;;
62610;SDS011;48683;48.084;17.272;2022-09-13T13:15:59;20.40;;;2.45;;
62610;SDS011;48683;48.084;17.272;2022-09-13T13:31:41;3.10;;;2.00;;
62610;SDS011;48683;48.084;17.272;2022-09-13T13:41:38;4.35;;;1.95;;
62610;SDS011;48683;48.084;17.272;2022-09-13T13:46:42;2.05;;;1.83;;
62610;SDS011;48683;48.084;17.272;2022-09-13T13:57:14;3.33;;;1.98;;
62610;SDS011;48683;48.084;17.272;2022-09-13T14:00:05;3.42;;;2.00;;
62610;SDS011;48683;48.084;17.272;2022-09-13T14:08:15;7.35;;;2.00;;
62610;SDS011;48683;48.084;17.272;2022-09-13T14:24:06;5.43;;;2.15;;
62610;SDS011;48683;48.084;17.272;2022-09-13T14:26:33;2.88;;;1.70;;
62610;SDS011;48683;48.084;17.272;2022-09-13T14:28:59;3.47;;;2.15;;
62610;SDS011;48683;48.084;17.272;2022-09-13T14:31:24;4.30;;;2.27;;
62610;SDS011;48683;48.084;17.272;2022-09-13T14:33:50;5.27;;;2.33;;
62610;SDS011;48683;48.084;17.272;2022-09-13T14:36:20;5.30;;;2.53;;
62610;SDS011;48683;48.084;17.272;2022-09-13T14:38:50;3.67;;;2.00;;
62610;SDS011;48683;48.084;17.272;2022-09-13T14:41:18;5.53;;;2.38;;
62610;SDS011;48683;48.084;17.272;2022-09-13T14:43:46;3.17;;;1.92;;
62610;SDS011;48683;48.084;17.272;2022-09-13T14:46:15;5.47;;;2.17;;
62610;SDS011;48683;48.084;17.272;2022-09-13T14:48:53;6.10;;;1.83;;
62610;SDS011;48683;48.084;17.272;2022-09-13T14:51:28;2.60;;;1.87;;
62610;SDS011;48683;48.084;17.272;2022-09-13T14:57:00;3.85;;;1.95;;
62610;SDS011;48683;48.084;17.272;2022-09-13T14:59:31;3.20;;;1.80;;
62610;SDS011;48683;48.084;17.272;2022-09-13T15:02:04;3.53;;;1.60;;
62610;SDS011;48683;48.084;17.272;2022-09-13T15:04:31;6.72;;;1.92;;
62610;SDS011;48683;48.084;17.272;2022-09-13T15:07:07;2.80;;;1.97;;
62610;SDS011;48683;48.084;17.272;2022-09-13T15:09:42;4.13;;;2.30;;
62610;SDS011;48683;48.084;17.272;2022-09-13T15:12:17;4.77;;;2.13;;
62610;SDS011;48683;48.084;17.272;2022-09-13T15:14:47;3.72;;;2.35;;
62610;SDS011;48683;48.084;17.272;2022-09-13T15:17:13;2.23;;;1.83;;
62610;SDS011;48683;48.084;17.272;2022-09-13T15:22:12;6.53;;;2.42;;
62610;SDS011;48683;48.084;17.272;2022-09-13T15:24:40;2.60;;;1.92;;
62610;SDS011;48683;48.084;17.272;2022-09-13T15:27:15;3.75;;;2.10;;
62610;SDS011;48683;48.084;17.272;2022-09-13T15:30:02;3.03;;;2.10;;
62610;SDS011;48683;48.084;17.272;2022-09-13T15:32:39;2.08;;;1.98;;
62610;SDS011;48683;48.084;17.272;2022-09-13T15:35:27;4.07;;;2.42;;
62610;SDS011;48683;48.084;17.272;2022-09-13T15:38:29;4.53;;;2.40;;
62610;SDS011;48683;48.084;17.272;2022-09-13T15:41:11;3.13;;;2.20;;
62610;SDS011;48683;48.084;17.272;2022-09-13T15:43:38;4.50;;;2.40;;
62610;SDS011;48683;48.084;17.272;2022-09-13T15:46:04;2.47;;;2.23;;
62610;SDS011;48683;48.084;17.272;2022-09-13T15:51:10;2.30;;;2.10;;
62610;SDS011;48683;48.084;17.272;2022-09-13T15:53:37;3.08;;;2.58;;
62610;SDS011;48683;48.084;17.272;2022-09-13T15:56:04;2.35;;;2.15;;
62610;SDS011;48683;48.084;17.272;2022-09-13T16:00:56;4.22;;;2.30;;
62610;SDS011;48683;48.084;17.272;2022-09-13T16:03:21;4.43;;;2.30;;
62610;SDS011;48683;48.084;17.272;2022-09-13T16:05:47;2.50;;;2.00;;
62610;SDS011;48683;48.084;17.272;2022-09-13T16:08:12;2.77;;;2.30;;
62610;SDS011;48683;48.084;17.272;2022-09-13T16:10:38;2.53;;;2.17;;
62610;SDS011;48683;48.084;17.272;2022-09-13T16:13:03;2.43;;;2.00;;
62610;SDS011;48683;48.084;17.272;2022-09-13T16:15:29;4.17;;;2.13;;
62610;SDS011;48683;48.084;17.272;2022-09-13T16:17:54;2.87;;;1.83;;
62610;SDS011;48683;48.084;17.272;2022-09-13T16:20:20;2.77;;;2.20;;
62610;SDS011;48683;48.084;17.272;2022-09-13T16:22:45;3.73;;;2.50;;
62610;SDS011;48683;48.084;17.272;2022-09-13T16:25:11;4.00;;;1.90;;
62610;SDS011;48683;48.084;17.272;2022-09-13T16:27:37;2.80;;;2.03;;
62610;SDS011;48683;48.084;17.272;2022-09-13T16:30:03;3.40;;;2.53;;
62610;SDS011;48683;48.084;17.272;2022-09-13T16:32:29;6.03;;;2.47;;
62610;SDS011;48683;48.084;17.272;2022-09-13T16:34:54;2.60;;;2.10;;
62610;SDS011;48683;48.084;17.272;2022-09-13T16:37:21;7.18;;;2.42;;
62610;SDS011;48683;48.084;17.272;2022-09-13T16:39:47;5.63;;;2.50;;
62610;SDS011;48683;48.084;17.272;2022-09-13T16:42:13;3.13;;;2.33;;
62610;SDS011;48683;48.084;17.272;2022-09-13T16:44:40;4.93;;;2.17;;
62610;SDS011;48683;48.084;17.272;2022-09-13T16:47:06;2.67;;;2.10;;
62610;SDS011;48683;48.084;17.272;2022-09-13T16:49:31;8.07;;;2.60;;
62610;SDS011;48683;48.084;17.272;2022-09-13T16:51:56;3.17;;;2.53;;
62610;SDS011;48683;48.084;17.272;2022-09-13T16:54:23;2.38;;;2.10;;
62610;SDS011;48683;48.084;17.272;2022-09-13T16:56:50;4.10;;;2.38;;
62610;SDS011;48683;48.084;17.272;2022-09-13T16:59:16;6.00;;;3.13;;
62610;SDS011;48683;48.084;17.272;2022-09-13T17:01:41;5.83;;;2.57;;
62610;SDS011;48683;48.084;17.272;2022-09-13T17:04:06;4.43;;;2.43;;
62610;SDS011;48683;48.084;17.272;2022-09-13T17:06:34;3.00;;;2.38;;
62610;SDS011;48683;48.084;17.272;2022-09-13T17:09:00;1.97;;;1.87;;
62610;SDS011;48683;48.084;17.272;2022-09-13T17:11:28;2.85;;;2.22;;
62610;SDS011;48683;48.084;17.272;2022-09-13T17:13:55;2.75;;;2.55;;
62610;SDS011;48683;48.084;17.272;2022-09-13T17:16:23;2.97;;;2.63;;
62610;SDS011;48683;48.084;17.272;2022-09-13T17:18:49;4.45;;;2.50;;
62610;SDS011;48683;48.084;17.272;2022-09-13T17:21:15;7.38;;;2.40;;
62610;SDS011;48683;48.084;17.272;2022-09-13T17:23:41;4.25;;;2.38;;
62610;SDS011;48683;48.084;17.272;2022-09-13T17:26:06;7.00;;;2.77;;
62610;SDS011;48683;48.084;17.272;2022-09-13T17:28:32;2.80;;;2.60;;
62610;SDS011;48683;48.084;17.272;2022-09-13T17:30:59;2.88;;;2.30;;
62610;SDS011;48683;48.084;17.272;2022-09-13T17:33:25;3.45;;;2.50;;
62610;SDS011;48683;48.084;17.272;2022-09-13T17:35:57;3.10;;;2.53;;
62610;SDS011;48683;48.084;17.272;2022-09-13T17:38:26;4.13;;;2.50;;
62610;SDS011;48683;48.084;17.272;2022-09-13T17:41:02;3.85;;;2.90;;
62610;SDS011;48683;48.084;17.272;2022-09-13T17:43:35;4.68;;;2.72;;
62610;SDS011;48683;48.084;17.272;2022-09-13T17:46:03;2.95;;;2.65;;
62610;SDS011;48683;48.084;17.272;2022-09-13T17:48:29;5.57;;;2.42;;
62610;SDS011;48683;48.084;17.272;2022-09-13T17:50:59;2.40;;;2.20;;
62610;SDS011;48683;48.084;17.272;2022-09-13T17:53:25;7.05;;;2.63;;
62610;SDS011;48683;48.084;17.272;2022-09-13T17:55:51;3.30;;;2.80;;
62610;SDS011;48683;48.084;17.272;2022-09-13T17:58:16;5.23;;;2.80;;
62610;SDS011;48683;48.084;17.272;2022-09-13T18:00:41;16.67;;;2.63;;
62610;SDS011;48683;48.084;17.272;2022-09-13T18:03:07;9.17;;;2.90;;
62610;SDS011;48683;48.084;17.272;2022-09-13T18:05:33;8.30;;;2.57;;
62610;SDS011;48683;48.084;17.272;2022-09-13T18:07:58;4.40;;;2.60;;
62610;SDS011;48683;48.084;17.272;2022-09-13T18:10:24;2.83;;;2.58;;
62610;SDS011;48683;48.084;17.272;2022-09-13T18:12:50;4.67;;;2.60;;
62610;SDS011;48683;48.084;17.272;2022-09-13T18:15:15;3.90;;;2.30;;
62610;SDS011;48683;48.084;17.272;2022-09-13T18:17:40;2.93;;;2.40;;
62610;SDS011;48683;48.084;17.272;2022-09-13T18:20:06;7.33;;;2.60;;
62610;SDS011;48683;48.084;17.272;2022-09-13T18:22:32;2.77;;;2.37;;
62610;SDS011;48683;48.084;17.272;2022-09-13T18:24:57;3.73;;;2.90;;
62610;SDS011;48683;48.084;17.272;2022-09-13T18:27:22;5.43;;;2.83;;
62610;SDS011;48683;48.084;17.272;2022-09-13T18:29:48;4.63;;;2.70;;
62610;SDS011;48683;48.084;17.272;2022-09-13T18:32:13;7.33;;;2.43;;
62610;SDS011;48683;48.084;17.272;2022-09-13T18:34:38;3.50;;;2.60;;
62610;SDS011;48683;48.084;17.272;2022-09-13T18:37:06;6.55;;;2.40;;
62610;SDS011;48683;48.084;17.272;2022-09-13T18:39:31;4.47;;;3.03;;
62610;SDS011;48683;48.084;17.272;2022-09-13T18:41:56;3.73;;;2.30;;
62610;SDS011;48683;48.084;17.272;2022-09-13T18:44:22;2.60;;;2.40;;
62610;SDS011;48683;48.084;17.272;2022-09-13T18:46:47;3.20;;;2.37;;
62610;SDS011;48683;48.084;17.272;2022-09-13T18:49:14;9.02;;;2.63;;
62610;SDS011;48683;48.084;17.272;2022-09-13T18:51:41;4.60;;;2.83;;